sensor_id;sensor_type;location;lat;lon;timestamp;P1;durP1;ratioP1;P2;durP2;ratioP2
23388;SDS011;11867;51.198;11.966;2023-03-25T00:00:14;5.60;;;2.10;;
23388;SDS011;11867;51.198;11.966;2023-03-25T00:01:19;4.90;;;2.03;;
23388;SDS011;11867;51.198;11.966;2023-03-25T00:02:25;2.30;;;1.42;;
23388;SDS011;11867;51.198;11.966;2023-03-25T00:03:31;2.00;;;1.60;;
23388;SDS011;11867;51.198;11.966;2023-03-25T00:04:35;3.35;;;1.88;;
23388;SDS011;11867;51.198;11.966;2023-03-25T00:05:40;4.63;;;1.55;;
23388;SDS011;11867;51.198;11.966;2023-03-25T00:06:41;3.72;;;1.35;;
23388;SDS011;11867;51.198;11.966;2023-03-25T00:07:44;3.70;;;1.52;;
23388;SDS011;11867;51.198;11.966;2023-03-25T00:08:48;4.60;;;1.58;;
23388;SDS011;11867;51.198;11.966;2023-03-25T00:09:51;3.08;;;1.40;;
23388;SDS011;11867;51.198;11.966;2023-03-25T00:10:53;2.78;;;1.42;;
23388;SDS011;11867;51.198;11.966;2023-03-25T00:11:57;4.32;;;1.58;;
23388;SDS011;11867;51.198;11.966;2023-03-25T00:12:59;1.83;;;1.17;;
23388;SDS011;11867;51.198;11.966;2023-03-25T00:14:05;2.92;;;1.48;;
23388;SDS011;11867;51.198;11.966;2023-03-25T00:15:09;2.10;;;1.05;;
23388;SDS011;11867;51.198;11.966;2023-03-25T00:16:12;2.63;;;1.50;;
23388;SDS011;11867;51.198;11.966;2023-03-25T00:17:15;5.30;;;1.45;;
23388;SDS011;11867;51.198;11.966;2023-03-25T00:18:18;2.97;;;1.20;;
23388;SDS011;11867;51.198;11.966;2023-03-25T00:19:21;3.63;;;1.27;;
23388;SDS011;11867;51.198;11.966;2023-03-25T00:20:24;2.78;;;1.38;;
23388;SDS011;11867;51.198;11.966;2023-03-25T00:21:28;5.45;;;1.80;;
23388;SDS011;11867;51.198;11.966;2023-03-25T00:22:29;3.45;;;1.17;;
23388;SDS011;11867;51.198;11.966;2023-03-25T00:23:32;4.93;;;1.35;;
23388;SDS011;11867;51.198;11.966;2023-03-25T00:24:33;6.60;;;1.27;;
23388;SDS011;11867;51.198;11.966;2023-03-25T00:25:36;4.05;;;1.25;;
23388;SDS011;11867;51.198;11.966;2023-03-25T00:26:37;6.85;;;1.83;;
23388;SDS011;11867;51.198;11.966;2023-03-25T00:27:42;3.08;;;1.15;;
23388;SDS011;11867;51.198;11.966;2023-03-25T00:28:46;2.25;;;1.05;;
23388;SDS011;11867;51.198;11.966;2023-03-25T00:29:49;2.20;;;1.00;;
23388;SDS011;11867;51.198;11.966;2023-03-25T00:30:50;2.88;;;1.23;;
23388;SDS011;11867;51.198;11.966;2023-03-25T00:31:54;2.70;;;1.00;;
23388;SDS011;11867;51.198;11.966;2023-03-25T00:32:55;3.22;;;1.38;;
23388;SDS011;11867;51.198;11.966;2023-03-25T00:34:01;2.42;;;0.85;;
23388;SDS011;11867;51.198;11.966;2023-03-25T00:35:04;2.00;;;1.08;;
23388;SDS011;11867;51.198;11.966;2023-03-25T00:36:10;2.20;;;1.15;;
23388;SDS011;11867;51.198;11.966;2023-03-25T00:37:15;2.38;;;1.10;;
23388;SDS011;11867;51.198;11.966;2023-03-25T00:38:18;4.47;;;1.17;;
23388;SDS011;11867;51.198;11.966;2023-03-25T00:39:20;2.60;;;1.05;;
23388;SDS011;11867;51.198;11.966;2023-03-25T00:40:24;3.03;;;1.17;;
23388;SDS011;11867;51.198;11.966;2023-03-25T00:41:28;1.80;;;0.90;;
23388;SDS011;11867;51.198;11.966;2023-03-25T00:42:31;3.67;;;0.80;;
23388;SDS011;11867;51.198;11.966;2023-03-25T00:43:35;3.67;;;1.00;;
23388;SDS011;11867;51.198;11.966;2023-03-25T00:44:38;4.20;;;1.13;;
23388;SDS011;11867;51.198;11.966;2023-03-25T00:45:39;2.38;;;1.10;;
23388;SDS011;11867;51.198;11.966;2023-03-25T00:46:42;4.40;;;1.38;;
23388;SDS011;11867;51.198;11.966;2023-03-25T00:47:44;3.60;;;1.17;;
23388;SDS011;11867;51.198;11.966;2023-03-25T00:48:46;2.28;;;1.23;;
23388;SDS011;11867;51.198;11.966;2023-03-25T00:49:48;5.07;;;1.10;;
23388;SDS011;11867;51.198;11.966;2023-03-25T00:50:53;4.55;;;1.10;;
23388;SDS011;11867;51.198;11.966;2023-03-25T00:51:55;3.13;;;0.95;;
23388;SDS011;11867;51.198;11.966;2023-03-25T00:52:58;4.13;;;1.20;;
23388;SDS011;11867;51.198;11.966;2023-03-25T00:54:00;4.95;;;1.08;;
23388;SDS011;11867;51.198;11.966;2023-03-25T00:55:04;3.95;;;0.90;;
23388;SDS011;11867;51.198;11.966;2023-03-25T00:56:06;3.45;;;0.98;;
23388;SDS011;11867;51.198;11.966;2023-03-25T00:57:09;3.28;;;1.17;;
23388;SDS011;11867;51.198;11.966;2023-03-25T00:58:20;4.50;;;1.15;;
23388;SDS011;11867;51.198;11.966;2023-03-25T00:59:22;5.93;;;1.30;;
23388;SDS011;11867;51.198;11.966;2023-03-25T01:00:24;4.65;;;1.30;;
23388;SDS011;11867;51.198;11.966;2023-03-25T01:01:27;6.47;;;1.20;;
23388;SDS011;11867;51.198;11.966;2023-03-25T01:02:29;2.63;;;1.00;;
23388;SDS011;11867;51.198;11.966;2023-03-25T01:03:34;4.47;;;1.40;;
23388;SDS011;11867;51.198;11.966;2023-03-25T01:04:38;7.78;;;1.38;;
23388;SDS011;11867;51.198;11.966;2023-03-25T01:05:43;4.40;;;1.48;;
23388;SDS011;11867;51.198;11.966;2023-03-25T01:06:45;4.80;;;1.30;;
23388;SDS011;11867;51.198;11.966;2023-03-25T01:07:53;3.58;;;1.45;;
23388;SDS011;11867;51.198;11.966;2023-03-25T01:08:56;2.90;;;1.23;;
23388;SDS011;11867;51.198;11.966;2023-03-25T01:09:58;3.53;;;1.55;;
23388;SDS011;11867;51.198;11.966;2023-03-25T01:11:00;2.95;;;1.30;;
23388;SDS011;11867;51.198;11.966;2023-03-25T01:12:03;2.92;;;1.30;;
23388;SDS011;11867;51.198;11.966;2023-03-25T01:13:04;3.70;;;1.33;;
23388;SDS011;11867;51.198;11.966;2023-03-25T01:14:09;4.00;;;1.30;;
23388;SDS011;11867;51.198;11.966;2023-03-25T01:15:12;3.72;;;1.25;;
23388;SDS011;11867;51.198;11.966;2023-03-25T01:16:15;2.95;;;1.15;;
23388;SDS011;11867;51.198;11.966;2023-03-25T01:17:17;3.55;;;1.35;;
23388;SDS011;11867;51.198;11.966;2023-03-25T01:18:20;2.85;;;1.30;;
23388;SDS011;11867;51.198;11.966;2023-03-25T01:19:21;4.10;;;1.50;;
23388;SDS011;11867;51.198;11.966;2023-03-25T01:20:24;6.75;;;1.30;;
23388;SDS011;11867;51.198;11.966;2023-03-25T01:21:27;4.63;;;1.30;;
23388;SDS011;11867;51.198;11.966;2023-03-25T01:22:29;4.47;;;1.17;;
23388;SDS011;11867;51.198;11.966;2023-03-25T01:23:32;2.47;;;1.10;;
23388;SDS011;11867;51.198;11.966;2023-03-25T01:24:35;4.60;;;1.30;;
23388;SDS011;11867;51.198;11.966;2023-03-25T01:25:37;3.53;;;1.20;;
23388;SDS011;11867;51.198;11.966;2023-03-25T01:26:40;3.03;;;1.20;;
23388;SDS011;11867;51.198;11.966;2023-03-25T01:27:43;3.33;;;1.17;;
23388;SDS011;11867;51.198;11.966;2023-03-25T01:28:46;2.55;;;1.10;;
23388;SDS011;11867;51.198;11.966;2023-03-25T01:29:47;5.07;;;1.27;;
23388;SDS011;11867;51.198;11.966;2023-03-25T01:30:50;4.28;;;1.17;;
23388;SDS011;11867;51.198;11.966;2023-03-25T01:31:52;2.58;;;1.17;;
23388;SDS011;11867;51.198;11.966;2023-03-25T01:32:54;5.47;;;1.40;;
23388;SDS011;11867;51.198;11.966;2023-03-25T01:33:56;3.88;;;1.30;;
23388;SDS011;11867;51.198;11.966;2023-03-25T01:34:59;2.67;;;1.27;;
23388;SDS011;11867;51.198;11.966;2023-03-25T01:36:01;4.63;;;1.25;;
23388;SDS011;11867;51.198;11.966;2023-03-25T01:37:09;3.85;;;1.40;;
23388;SDS011;11867;51.198;11.966;2023-03-25T01:38:12;4.10;;;1.27;;
23388;SDS011;11867;51.198;11.966;2023-03-25T01:39:16;4.82;;;1.25;;
23388;SDS011;11867;51.198;11.966;2023-03-25T01:40:20;1.80;;;1.25;;
23388;SDS011;11867;51.198;11.966;2023-03-25T01:41:24;3.63;;;1.48;;
23388;SDS011;11867;51.198;11.966;2023-03-25T01:42:42;4.38;;;1.20;;
23388;SDS011;11867;51.198;11.966;2023-03-25T01:43:59;4.38;;;1.33;;
23388;SDS011;11867;51.198;11.966;2023-03-25T01:45:12;5.47;;;1.15;;
23388;SDS011;11867;51.198;11.966;2023-03-25T01:46:20;6.55;;;1.30;;
23388;SDS011;11867;51.198;11.966;2023-03-25T01:47:21;3.47;;;1.30;;
23388;SDS011;11867;51.198;11.966;2023-03-25T01:48:27;4.40;;;1.20;;
23388;SDS011;11867;51.198;11.966;2023-03-25T01:49:34;3.88;;;1.50;;
23388;SDS011;11867;51.198;11.966;2023-03-25T01:50:41;3.53;;;1.20;;
23388;SDS011;11867;51.198;11.966;2023-03-25T01:51:46;4.05;;;1.02;;
23388;SDS011;11867;51.198;11.966;2023-03-25T01:52:52;2.72;;;1.15;;
23388;SDS011;11867;51.198;11.966;2023-03-25T01:53:53;3.55;;;1.10;;
23388;SDS011;11867;51.198;11.966;2023-03-25T01:54:57;2.65;;;0.93;;
23388;SDS011;11867;51.198;11.966;2023-03-25T01:55:59;3.40;;;1.10;;
23388;SDS011;11867;51.198;11.966;2023-03-25T01:57:05;4.53;;;1.25;;
23388;SDS011;11867;51.198;11.966;2023-03-25T01:58:09;4.07;;;1.23;;
23388;SDS011;11867;51.198;11.966;2023-03-25T01:59:16;2.72;;;1.15;;
23388;SDS011;11867;51.198;11.966;2023-03-25T02:00:20;3.50;;;1.02;;
23388;SDS011;11867;51.198;11.966;2023-03-25T02:01:23;3.92;;;1.40;;
23388;SDS011;11867;51.198;11.966;2023-03-25T02:02:26;2.47;;;1.15;;
23388;SDS011;11867;51.198;11.966;2023-03-25T02:03:35;5.35;;;1.23;;
23388;SDS011;11867;51.198;11.966;2023-03-25T02:04:39;3.03;;;1.10;;
23388;SDS011;11867;51.198;11.966;2023-03-25T02:05:47;4.15;;;1.30;;
23388;SDS011;11867;51.198;11.966;2023-03-25T02:06:52;3.72;;;1.30;;
23388;SDS011;11867;51.198;11.966;2023-03-25T02:07:55;1.92;;;1.00;;
23388;SDS011;11867;51.198;11.966;2023-03-25T02:08:58;5.70;;;1.48;;
23388;SDS011;11867;51.198;11.966;2023-03-25T02:10:08;3.97;;;1.33;;
23388;SDS011;11867;51.198;11.966;2023-03-25T02:11:13;2.85;;;1.40;;
23388;SDS011;11867;51.198;11.966;2023-03-25T02:12:14;2.88;;;1.00;;
23388;SDS011;11867;51.198;11.966;2023-03-25T02:13:17;2.70;;;1.20;;
23388;SDS011;11867;51.198;11.966;2023-03-25T02:14:21;5.00;;;1.27;;
23388;SDS011;11867;51.198;11.966;2023-03-25T02:15:26;3.83;;;1.30;;
23388;SDS011;11867;51.198;11.966;2023-03-25T02:16:39;4.90;;;1.23;;
23388;SDS011;11867;51.198;11.966;2023-03-25T02:17:49;2.40;;;0.90;;
23388;SDS011;11867;51.198;11.966;2023-03-25T02:19:04;2.45;;;1.13;;
23388;SDS011;11867;51.198;11.966;2023-03-25T02:20:36;5.63;;;1.55;;
23388;SDS011;11867;51.198;11.966;2023-03-25T02:22:14;4.57;;;1.55;;
23388;SDS011;11867;51.198;11.966;2023-03-25T02:23:43;4.78;;;1.20;;
23388;SDS011;11867;51.198;11.966;2023-03-25T02:27:58;0.98;;;0.77;;
23388;SDS011;11867;51.198;11.966;2023-03-25T02:29:12;2.67;;;1.73;;
23388;SDS011;11867;51.198;11.966;2023-03-25T02:30:29;4.53;;;1.50;;
23388;SDS011;11867;51.198;11.966;2023-03-25T02:31:50;3.63;;;1.60;;
23388;SDS011;11867;51.198;11.966;2023-03-25T02:33:24;3.03;;;1.50;;
23388;SDS011;11867;51.198;11.966;2023-03-25T02:34:47;4.28;;;1.63;;
23388;SDS011;11867;51.198;11.966;2023-03-25T02:36:13;3.28;;;1.35;;
23388;SDS011;11867;51.198;11.966;2023-03-25T02:39:07;4.28;;;1.65;;
23388;SDS011;11867;51.198;11.966;2023-03-25T02:40:13;4.68;;;1.30;;
23388;SDS011;11867;51.198;11.966;2023-03-25T02:41:21;4.07;;;1.50;;
23388;SDS011;11867;51.198;11.966;2023-03-25T02:42:30;4.88;;;1.60;;
23388;SDS011;11867;51.198;11.966;2023-03-25T02:43:37;4.88;;;2.03;;
23388;SDS011;11867;51.198;11.966;2023-03-25T02:44:46;5.28;;;1.80;;
23388;SDS011;11867;51.198;11.966;2023-03-25T02:45:55;4.50;;;1.70;;
23388;SDS011;11867;51.198;11.966;2023-03-25T02:47:01;4.68;;;1.85;;
23388;SDS011;11867;51.198;11.966;2023-03-25T02:48:08;2.25;;;1.30;;
23388;SDS011;11867;51.198;11.966;2023-03-25T02:49:18;3.57;;;1.73;;
23388;SDS011;11867;51.198;11.966;2023-03-25T02:50:24;3.20;;;1.40;;
23388;SDS011;11867;51.198;11.966;2023-03-25T02:51:32;4.38;;;1.50;;
23388;SDS011;11867;51.198;11.966;2023-03-25T02:52:36;4.47;;;1.90;;
23388;SDS011;11867;51.198;11.966;2023-03-25T02:53:43;4.80;;;1.80;;
23388;SDS011;11867;51.198;11.966;2023-03-25T02:54:48;1.80;;;1.60;;
23388;SDS011;11867;51.198;11.966;2023-03-25T02:55:53;2.15;;;1.45;;
23388;SDS011;11867;51.198;11.966;2023-03-25T02:56:58;2.53;;;1.55;;
23388;SDS011;11867;51.198;11.966;2023-03-25T02:58:02;4.22;;;1.77;;
23388;SDS011;11867;51.198;11.966;2023-03-25T02:59:07;5.05;;;1.80;;
23388;SDS011;11867;51.198;11.966;2023-03-25T03:00:15;4.57;;;1.80;;
23388;SDS011;11867;51.198;11.966;2023-03-25T03:01:20;3.25;;;1.58;;
23388;SDS011;11867;51.198;11.966;2023-03-25T03:02:27;4.38;;;1.75;;
23388;SDS011;11867;51.198;11.966;2023-03-25T03:03:32;2.95;;;1.50;;
23388;SDS011;11867;51.198;11.966;2023-03-25T03:04:45;3.30;;;1.60;;
23388;SDS011;11867;51.198;11.966;2023-03-25T03:05:49;4.95;;;1.70;;
23388;SDS011;11867;51.198;11.966;2023-03-25T03:06:53;2.88;;;1.80;;
23388;SDS011;11867;51.198;11.966;2023-03-25T03:09:30;5.20;;;1.65;;
23388;SDS011;11867;51.198;11.966;2023-03-25T03:10:41;5.30;;;1.60;;
23388;SDS011;11867;51.198;11.966;2023-03-25T03:11:55;7.75;;;1.90;;
23388;SDS011;11867;51.198;11.966;2023-03-25T03:13:07;2.80;;;1.60;;
23388;SDS011;11867;51.198;11.966;2023-03-25T03:14:21;3.10;;;1.45;;
23388;SDS011;11867;51.198;11.966;2023-03-25T03:15:36;4.15;;;1.23;;
23388;SDS011;11867;51.198;11.966;2023-03-25T03:16:46;1.80;;;1.55;;
23388;SDS011;11867;51.198;11.966;2023-03-25T03:18:03;5.28;;;1.98;;
23388;SDS011;11867;51.198;11.966;2023-03-25T03:19:15;2.65;;;1.40;;
23388;SDS011;11867;51.198;11.966;2023-03-25T03:20:30;6.57;;;1.85;;
23388;SDS011;11867;51.198;11.966;2023-03-25T03:21:40;4.85;;;1.60;;
23388;SDS011;11867;51.198;11.966;2023-03-25T03:22:47;2.63;;;1.48;;
23388;SDS011;11867;51.198;11.966;2023-03-25T03:23:56;2.88;;;1.60;;
23388;SDS011;11867;51.198;11.966;2023-03-25T03:25:05;5.10;;;1.42;;
23388;SDS011;11867;51.198;11.966;2023-03-25T03:26:19;3.55;;;1.45;;
23388;SDS011;11867;51.198;11.966;2023-03-25T03:27:27;3.30;;;1.17;;
23388;SDS011;11867;51.198;11.966;2023-03-25T03:28:34;4.97;;;1.42;;
23388;SDS011;11867;51.198;11.966;2023-03-25T03:29:46;4.03;;;1.58;;
23388;SDS011;11867;51.198;11.966;2023-03-25T03:30:52;3.50;;;1.10;;
23388;SDS011;11867;51.198;11.966;2023-03-25T03:31:59;2.28;;;0.80;;
23388;SDS011;11867;51.198;11.966;2023-03-25T03:33:10;1.35;;;0.60;;
23388;SDS011;11867;51.198;11.966;2023-03-25T03:34:18;1.67;;;0.60;;
23388;SDS011;11867;51.198;11.966;2023-03-25T03:35:27;1.80;;;0.77;;
23388;SDS011;11867;51.198;11.966;2023-03-25T03:36:33;0.70;;;0.60;;
23388;SDS011;11867;51.198;11.966;2023-03-25T03:37:42;1.40;;;0.60;;
23388;SDS011;11867;51.198;11.966;2023-03-25T03:38:49;1.30;;;0.30;;
23388;SDS011;11867;51.198;11.966;2023-03-25T03:39:56;1.52;;;0.50;;
23388;SDS011;11867;51.198;11.966;2023-03-25T03:41:00;0.95;;;0.40;;
23388;SDS011;11867;51.198;11.966;2023-03-25T03:42:07;1.83;;;0.50;;
23388;SDS011;11867;51.198;11.966;2023-03-25T03:43:14;2.78;;;0.40;;
23388;SDS011;11867;51.198;11.966;2023-03-25T03:44:24;0.65;;;0.30;;
23388;SDS011;11867;51.198;11.966;2023-03-25T03:45:32;0.85;;;0.40;;
23388;SDS011;11867;51.198;11.966;2023-03-25T03:46:40;1.05;;;0.30;;
23388;SDS011;11867;51.198;11.966;2023-03-25T03:47:49;0.50;;;0.30;;
23388;SDS011;11867;51.198;11.966;2023-03-25T03:48:55;1.75;;;0.40;;
23388;SDS011;11867;51.198;11.966;2023-03-25T03:49:58;1.10;;;0.40;;
23388;SDS011;11867;51.198;11.966;2023-03-25T03:51:07;0.50;;;0.22;;
23388;SDS011;11867;51.198;11.966;2023-03-25T03:52:12;1.00;;;0.30;;
23388;SDS011;11867;51.198;11.966;2023-03-25T03:53:19;0.47;;;0.25;;
23388;SDS011;11867;51.198;11.966;2023-03-25T03:54:24;1.02;;;0.20;;
23388;SDS011;11867;51.198;11.966;2023-03-25T03:55:29;0.50;;;0.30;;
23388;SDS011;11867;51.198;11.966;2023-03-25T03:56:39;1.55;;;0.40;;
23388;SDS011;11867;51.198;11.966;2023-03-25T03:57:47;0.90;;;0.30;;
23388;SDS011;11867;51.198;11.966;2023-03-25T03:58:54;0.95;;;0.30;;
23388;SDS011;11867;51.198;11.966;2023-03-25T04:00:03;0.77;;;0.38;;
23388;SDS011;11867;51.198;11.966;2023-03-25T04:01:07;1.20;;;0.30;;
23388;SDS011;11867;51.198;11.966;2023-03-25T04:02:15;0.30;;;0.20;;
23388;SDS011;11867;51.198;11.966;2023-03-25T04:03:26;0.70;;;0.35;;
23388;SDS011;11867;51.198;11.966;2023-03-25T04:04:35;1.20;;;0.40;;
23388;SDS011;11867;51.198;11.966;2023-03-25T04:05:39;0.32;;;0.20;;
23388;SDS011;11867;51.198;11.966;2023-03-25T04:06:46;1.50;;;0.45;;
23388;SDS011;11867;51.198;11.966;2023-03-25T04:07:58;2.25;;;0.50;;
23388;SDS011;11867;51.198;11.966;2023-03-25T04:09:12;1.23;;;0.30;;
23388;SDS011;11867;51.198;11.966;2023-03-25T04:10:29;1.77;;;0.38;;
23388;SDS011;11867;51.198;11.966;2023-03-25T04:11:41;0.77;;;0.25;;
23388;SDS011;11867;51.198;11.966;2023-03-25T04:12:46;1.30;;;0.28;;
23388;SDS011;11867;51.198;11.966;2023-03-25T04:13:52;0.47;;;0.20;;
23388;SDS011;11867;51.198;11.966;2023-03-25T04:14:59;0.50;;;0.30;;
23388;SDS011;11867;51.198;11.966;2023-03-25T04:16:03;0.95;;;0.32;;
23388;SDS011;11867;51.198;11.966;2023-03-25T04:17:06;1.05;;;0.40;;
23388;SDS011;11867;51.198;11.966;2023-03-25T04:18:08;1.08;;;0.20;;
23388;SDS011;11867;51.198;11.966;2023-03-25T04:19:10;0.30;;;0.20;;
23388;SDS011;11867;51.198;11.966;2023-03-25T04:20:15;0.28;;;0.20;;
23388;SDS011;11867;51.198;11.966;2023-03-25T04:21:23;0.55;;;0.20;;
23388;SDS011;11867;51.198;11.966;2023-03-25T04:22:26;0.90;;;0.30;;
23388;SDS011;11867;51.198;11.966;2023-03-25T04:23:28;0.40;;;0.15;;
23388;SDS011;11867;51.198;11.966;2023-03-25T04:24:31;0.40;;;0.32;;
23388;SDS011;11867;51.198;11.966;2023-03-25T04:25:33;0.63;;;0.32;;
23388;SDS011;11867;51.198;11.966;2023-03-25T04:26:35;1.55;;;0.20;;
23388;SDS011;11867;51.198;11.966;2023-03-25T04:27:39;0.25;;;0.20;;
23388;SDS011;11867;51.198;11.966;2023-03-25T04:28:48;0.88;;;0.28;;
23388;SDS011;11867;51.198;11.966;2023-03-25T04:29:51;1.58;;;0.30;;
23388;SDS011;11867;51.198;11.966;2023-03-25T04:30:53;1.52;;;0.30;;
23388;SDS011;11867;51.198;11.966;2023-03-25T04:31:56;0.32;;;0.20;;
23388;SDS011;11867;51.198;11.966;2023-03-25T04:32:59;0.52;;;0.22;;
23388;SDS011;11867;51.198;11.966;2023-03-25T04:34:01;0.85;;;0.30;;
23388;SDS011;11867;51.198;11.966;2023-03-25T04:35:05;0.32;;;0.20;;
23388;SDS011;11867;51.198;11.966;2023-03-25T04:36:07;1.70;;;0.30;;
23388;SDS011;11867;51.198;11.966;2023-03-25T04:37:11;0.20;;;0.20;;
23388;SDS011;11867;51.198;11.966;2023-03-25T04:38:14;0.55;;;0.43;;
23388;SDS011;11867;51.198;11.966;2023-03-25T04:39:18;3.58;;;0.45;;
23388;SDS011;11867;51.198;11.966;2023-03-25T04:40:23;1.42;;;0.32;;
23388;SDS011;11867;51.198;11.966;2023-03-25T04:41:26;1.02;;;0.38;;
23388;SDS011;11867;51.198;11.966;2023-03-25T04:42:29;1.30;;;0.30;;
23388;SDS011;11867;51.198;11.966;2023-03-25T04:43:34;1.98;;;0.20;;
23388;SDS011;11867;51.198;11.966;2023-03-25T04:44:39;0.93;;;0.22;;
23388;SDS011;11867;51.198;11.966;2023-03-25T04:45:41;0.10;;;0.10;;
23388;SDS011;11867;51.198;11.966;2023-03-25T04:46:49;0.40;;;0.15;;
23388;SDS011;11867;51.198;11.966;2023-03-25T04:47:52;1.27;;;0.22;;
23388;SDS011;11867;51.198;11.966;2023-03-25T04:48:55;1.42;;;0.40;;
23388;SDS011;11867;51.198;11.966;2023-03-25T04:49:57;1.67;;;0.30;;
23388;SDS011;11867;51.198;11.966;2023-03-25T04:51:00;0.30;;;0.30;;
23388;SDS011;11867;51.198;11.966;2023-03-25T04:52:04;0.63;;;0.20;;
23388;SDS011;11867;51.198;11.966;2023-03-25T04:53:07;2.00;;;0.68;;
23388;SDS011;11867;51.198;11.966;2023-03-25T04:54:10;1.23;;;0.35;;
23388;SDS011;11867;51.198;11.966;2023-03-25T04:55:13;0.63;;;0.20;;
23388;SDS011;11867;51.198;11.966;2023-03-25T04:56:17;1.95;;;0.20;;
23388;SDS011;11867;51.198;11.966;2023-03-25T04:57:20;0.52;;;0.20;;
23388;SDS011;11867;51.198;11.966;2023-03-25T04:58:22;1.13;;;0.50;;
23388;SDS011;11867;51.198;11.966;2023-03-25T04:59:25;1.65;;;0.30;;
23388;SDS011;11867;51.198;11.966;2023-03-25T05:00:27;0.30;;;0.30;;
23388;SDS011;11867;51.198;11.966;2023-03-25T05:01:30;0.20;;;0.20;;
23388;SDS011;11867;51.198;11.966;2023-03-25T05:02:33;1.00;;;0.40;;
23388;SDS011;11867;51.198;11.966;2023-03-25T05:03:35;1.10;;;0.30;;
23388;SDS011;11867;51.198;11.966;2023-03-25T05:04:40;1.10;;;0.30;;
23388;SDS011;11867;51.198;11.966;2023-03-25T05:05:43;0.55;;;0.20;;
23388;SDS011;11867;51.198;11.966;2023-03-25T05:06:45;2.42;;;0.28;;
23388;SDS011;11867;51.198;11.966;2023-03-25T05:07:50;1.65;;;0.32;;
23388;SDS011;11867;51.198;11.966;2023-03-25T05:08:53;0.65;;;0.30;;
23388;SDS011;11867;51.198;11.966;2023-03-25T05:09:56;1.13;;;0.30;;
23388;SDS011;11867;51.198;11.966;2023-03-25T05:10:58;1.50;;;0.20;;
23388;SDS011;11867;51.198;11.966;2023-03-25T05:12:00;1.27;;;0.20;;
23388;SDS011;11867;51.198;11.966;2023-03-25T05:13:03;0.68;;;0.30;;
23388;SDS011;11867;51.198;11.966;2023-03-25T05:14:07;1.52;;;0.55;;
23388;SDS011;11867;51.198;11.966;2023-03-25T05:15:11;0.57;;;0.30;;
23388;SDS011;11867;51.198;11.966;2023-03-25T05:16:14;0.55;;;0.30;;
23388;SDS011;11867;51.198;11.966;2023-03-25T05:17:16;1.95;;;0.30;;
23388;SDS011;11867;51.198;11.966;2023-03-25T05:18:19;1.38;;;0.38;;
23388;SDS011;11867;51.198;11.966;2023-03-25T05:19:20;0.73;;;0.30;;
23388;SDS011;11867;51.198;11.966;2023-03-25T05:20:23;0.52;;;0.30;;
23388;SDS011;11867;51.198;11.966;2023-03-25T05:21:25;1.83;;;0.32;;
23388;SDS011;11867;51.198;11.966;2023-03-25T05:22:27;0.38;;;0.30;;
23388;SDS011;11867;51.198;11.966;2023-03-25T05:23:29;2.10;;;0.20;;
23388;SDS011;11867;51.198;11.966;2023-03-25T05:24:31;1.35;;;0.30;;
23388;SDS011;11867;51.198;11.966;2023-03-25T05:25:33;0.90;;;0.30;;
23388;SDS011;11867;51.198;11.966;2023-03-25T05:26:37;0.80;;;0.47;;
23388;SDS011;11867;51.198;11.966;2023-03-25T05:27:40;0.80;;;0.30;;
23388;SDS011;11867;51.198;11.966;2023-03-25T05:28:42;1.73;;;0.38;;
23388;SDS011;11867;51.198;11.966;2023-03-25T05:29:44;1.05;;;0.50;;
23388;SDS011;11867;51.198;11.966;2023-03-25T05:30:48;1.85;;;0.40;;
23388;SDS011;11867;51.198;11.966;2023-03-25T05:31:50;1.65;;;0.40;;
23388;SDS011;11867;51.198;11.966;2023-03-25T05:32:52;1.65;;;0.50;;
23388;SDS011;11867;51.198;11.966;2023-03-25T05:33:56;0.88;;;0.40;;
23388;SDS011;11867;51.198;11.966;2023-03-25T05:34:59;1.33;;;0.30;;
23388;SDS011;11867;51.198;11.966;2023-03-25T05:36:02;1.85;;;0.50;;
23388;SDS011;11867;51.198;11.966;2023-03-25T05:37:05;0.70;;;0.30;;
23388;SDS011;11867;51.198;11.966;2023-03-25T05:38:06;3.17;;;0.40;;
23388;SDS011;11867;51.198;11.966;2023-03-25T05:39:12;1.58;;;0.40;;
23388;SDS011;11867;51.198;11.966;2023-03-25T05:40:14;2.22;;;0.40;;
23388;SDS011;11867;51.198;11.966;2023-03-25T05:41:17;0.98;;;0.30;;
23388;SDS011;11867;51.198;11.966;2023-03-25T05:42:18;5.10;;;0.60;;
23388;SDS011;11867;51.198;11.966;2023-03-25T05:43:23;4.68;;;0.40;;
23388;SDS011;11867;51.198;11.966;2023-03-25T05:44:25;2.65;;;0.38;;
23388;SDS011;11867;51.198;11.966;2023-03-25T05:45:27;1.67;;;0.40;;
23388;SDS011;11867;51.198;11.966;2023-03-25T05:46:30;3.00;;;0.73;;
23388;SDS011;11867;51.198;11.966;2023-03-25T05:47:33;2.53;;;0.40;;
23388;SDS011;11867;51.198;11.966;2023-03-25T05:48:34;2.70;;;0.50;;
23388;SDS011;11867;51.198;11.966;2023-03-25T05:49:37;0.85;;;0.30;;
23388;SDS011;11867;51.198;11.966;2023-03-25T05:50:38;2.28;;;0.50;;
23388;SDS011;11867;51.198;11.966;2023-03-25T05:51:42;0.95;;;0.28;;
23388;SDS011;11867;51.198;11.966;2023-03-25T05:52:45;2.35;;;0.40;;
23388;SDS011;11867;51.198;11.966;2023-03-25T05:53:50;3.30;;;0.60;;
23388;SDS011;11867;51.198;11.966;2023-03-25T05:54:51;2.08;;;0.40;;
23388;SDS011;11867;51.198;11.966;2023-03-25T05:55:56;2.20;;;0.47;;
23388;SDS011;11867;51.198;11.966;2023-03-25T05:56:57;1.52;;;0.38;;
23388;SDS011;11867;51.198;11.966;2023-03-25T05:58:00;2.20;;;0.30;;
23388;SDS011;11867;51.198;11.966;2023-03-25T05:59:01;1.35;;;0.30;;
23388;SDS011;11867;51.198;11.966;2023-03-25T06:00:05;0.95;;;0.40;;
23388;SDS011;11867;51.198;11.966;2023-03-25T06:01:09;1.20;;;0.45;;
23388;SDS011;11867;51.198;11.966;2023-03-25T06:02:33;1.10;;;0.60;;
23388;SDS011;11867;51.198;11.966;2023-03-25T06:03:35;2.15;;;0.40;;
23388;SDS011;11867;51.198;11.966;2023-03-25T06:04:38;2.53;;;0.50;;
23388;SDS011;11867;51.198;11.966;2023-03-25T06:05:41;1.05;;;0.57;;
23388;SDS011;11867;51.198;11.966;2023-03-25T06:06:44;2.05;;;0.50;;
23388;SDS011;11867;51.198;11.966;2023-03-25T06:07:45;2.00;;;0.55;;
23388;SDS011;11867;51.198;11.966;2023-03-25T06:08:48;1.70;;;0.40;;
23388;SDS011;11867;51.198;11.966;2023-03-25T06:09:50;2.88;;;0.43;;
23388;SDS011;11867;51.198;11.966;2023-03-25T06:10:54;2.92;;;0.68;;
23388;SDS011;11867;51.198;11.966;2023-03-25T06:11:59;2.70;;;0.50;;
23388;SDS011;11867;51.198;11.966;2023-03-25T06:13:02;1.17;;;0.40;;
23388;SDS011;11867;51.198;11.966;2023-03-25T06:14:04;2.60;;;0.50;;
23388;SDS011;11867;51.198;11.966;2023-03-25T06:15:07;1.77;;;0.43;;
23388;SDS011;11867;51.198;11.966;2023-03-25T06:16:10;2.35;;;0.47;;
23388;SDS011;11867;51.198;11.966;2023-03-25T06:17:13;2.95;;;0.60;;
23388;SDS011;11867;51.198;11.966;2023-03-25T06:18:17;2.08;;;0.50;;
23388;SDS011;11867;51.198;11.966;2023-03-25T06:19:22;2.60;;;0.55;;
23388;SDS011;11867;51.198;11.966;2023-03-25T06:20:26;2.35;;;0.60;;
23388;SDS011;11867;51.198;11.966;2023-03-25T06:21:30;1.15;;;0.40;;
23388;SDS011;11867;51.198;11.966;2023-03-25T06:22:33;3.50;;;0.60;;
23388;SDS011;11867;51.198;11.966;2023-03-25T06:23:38;4.85;;;0.55;;
23388;SDS011;11867;51.198;11.966;2023-03-25T06:24:40;1.67;;;0.50;;
23388;SDS011;11867;51.198;11.966;2023-03-25T06:25:43;1.58;;;0.50;;
23388;SDS011;11867;51.198;11.966;2023-03-25T06:26:45;1.63;;;0.50;;
23388;SDS011;11867;51.198;11.966;2023-03-25T06:27:48;4.45;;;0.70;;
23388;SDS011;11867;51.198;11.966;2023-03-25T06:28:50;2.50;;;0.52;;
23388;SDS011;11867;51.198;11.966;2023-03-25T06:29:53;3.95;;;0.68;;
23388;SDS011;11867;51.198;11.966;2023-03-25T06:30:54;2.13;;;0.60;;
23388;SDS011;11867;51.198;11.966;2023-03-25T06:31:57;2.58;;;1.02;;
23388;SDS011;11867;51.198;11.966;2023-03-25T06:32:59;1.92;;;0.55;;